sensor_id;sensor_type;location;lat;lon;timestamp;P1;durP1;ratioP1;P2;durP2;ratioP2
46507;SDS011;32223;53.654;10.014;2023-01-30T00:00:30;43.97;;;22.77;;
46507;SDS011;32223;53.654;10.014;2023-01-30T00:02:57;43.33;;;21.08;;
46507;SDS011;32223;53.654;10.014;2023-01-30T00:05:23;44.90;;;22.17;;
46507;SDS011;32223;53.654;10.014;2023-01-30T00:07:48;41.50;;;21.35;;
46507;SDS011;32223;53.654;10.014;2023-01-30T00:10:14;48.00;;;22.58;;
46507;SDS011;32223;53.654;10.014;2023-01-30T00:12:40;43.17;;;21.83;;
46507;SDS011;32223;53.654;10.014;2023-01-30T00:15:06;45.65;;;22.02;;
46507;SDS011;32223;53.654;10.014;2023-01-30T00:17:32;42.03;;;23.90;;
46507;SDS011;32223;53.654;10.014;2023-01-30T00:19:57;44.40;;;22.05;;
46507;SDS011;32223;53.654;10.014;2023-01-30T00:22:23;46.95;;;24.10;;
46507;SDS011;32223;53.654;10.014;2023-01-30T00:24:48;44.45;;;24.10;;
46507;SDS011;32223;53.654;10.014;2023-01-30T00:27:14;48.75;;;23.33;;
46507;SDS011;32223;53.654;10.014;2023-01-30T00:29:40;46.42;;;22.85;;
46507;SDS011;32223;53.654;10.014;2023-01-30T00:32:05;45.65;;;24.02;;
46507;SDS011;32223;53.654;10.014;2023-01-30T00:34:31;43.03;;;21.73;;
46507;SDS011;32223;53.654;10.014;2023-01-30T00:36:56;44.70;;;21.65;;
46507;SDS011;32223;53.654;10.014;2023-01-30T00:39:22;42.35;;;21.85;;
46507;SDS011;32223;53.654;10.014;2023-01-30T00:41:48;41.00;;;22.15;;
46507;SDS011;32223;53.654;10.014;2023-01-30T00:44:32;43.67;;;21.75;;
46507;SDS011;32223;53.654;10.014;2023-01-30T00:47:16;41.42;;;21.40;;
46507;SDS011;32223;53.654;10.014;2023-01-30T00:49:41;45.08;;;23.35;;
46507;SDS011;32223;53.654;10.014;2023-01-30T00:52:07;45.85;;;22.30;;
46507;SDS011;32223;53.654;10.014;2023-01-30T00:54:33;43.42;;;20.92;;
46507;SDS011;32223;53.654;10.014;2023-01-30T00:56:59;51.47;;;23.10;;
46507;SDS011;32223;53.654;10.014;2023-01-30T00:59:25;44.33;;;23.27;;
46507;SDS011;32223;53.654;10.014;2023-01-30T01:01:51;44.10;;;20.65;;
46507;SDS011;32223;53.654;10.014;2023-01-30T01:04:17;41.42;;;21.08;;
46507;SDS011;32223;53.654;10.014;2023-01-30T01:06:42;40.20;;;20.23;;
46507;SDS011;32223;53.654;10.014;2023-01-30T01:09:08;44.90;;;22.55;;
46507;SDS011;32223;53.654;10.014;2023-01-30T01:11:34;44.35;;;22.77;;
46507;SDS011;32223;53.654;10.014;2023-01-30T01:14:00;54.25;;;24.65;;
46507;SDS011;32223;53.654;10.014;2023-01-30T01:16:28;44.42;;;22.70;;
46507;SDS011;32223;53.654;10.014;2023-01-30T01:18:54;46.72;;;21.83;;
46507;SDS011;32223;53.654;10.014;2023-01-30T01:21:20;39.40;;;20.73;;
46507;SDS011;32223;53.654;10.014;2023-01-30T01:23:49;42.75;;;21.27;;
46507;SDS011;32223;53.654;10.014;2023-01-30T01:26:16;45.20;;;22.02;;
46507;SDS011;32223;53.654;10.014;2023-01-30T01:28:42;48.28;;;21.63;;
46507;SDS011;32223;53.654;10.014;2023-01-30T01:31:08;42.90;;;23.40;;
46507;SDS011;32223;53.654;10.014;2023-01-30T01:33:35;42.60;;;21.52;;
46507;SDS011;32223;53.654;10.014;2023-01-30T01:36:00;41.97;;;20.83;;
46507;SDS011;32223;53.654;10.014;2023-01-30T01:38:26;43.33;;;20.35;;
46507;SDS011;32223;53.654;10.014;2023-01-30T01:40:51;38.00;;;22.15;;
46507;SDS011;32223;53.654;10.014;2023-01-30T01:43:26;40.70;;;23.00;;
46507;SDS011;32223;53.654;10.014;2023-01-30T01:46:01;42.33;;;21.40;;
46507;SDS011;32223;53.654;10.014;2023-01-30T01:48:40;45.78;;;22.88;;
46507;SDS011;32223;53.654;10.014;2023-01-30T01:51:14;39.35;;;21.17;;
46507;SDS011;32223;53.654;10.014;2023-01-30T01:53:54;45.75;;;22.45;;
46507;SDS011;32223;53.654;10.014;2023-01-30T01:59:08;45.38;;;19.85;;
46507;SDS011;32223;53.654;10.014;2023-01-30T02:01:38;41.15;;;20.50;;
46507;SDS011;32223;53.654;10.014;2023-01-30T02:04:04;39.08;;;20.10;;
46507;SDS011;32223;53.654;10.014;2023-01-30T02:06:34;39.83;;;19.88;;
46507;SDS011;32223;53.654;10.014;2023-01-30T02:09:02;42.20;;;20.27;;
46507;SDS011;32223;53.654;10.014;2023-01-30T02:11:44;38.83;;;18.83;;
46507;SDS011;32223;53.654;10.014;2023-01-30T02:16:43;35.05;;;19.38;;
46507;SDS011;32223;53.654;10.014;2023-01-30T02:19:56;38.15;;;20.08;;
46507;SDS011;32223;53.654;10.014;2023-01-30T02:27:23;36.78;;;19.40;;
46507;SDS011;32223;53.654;10.014;2023-01-30T02:35:23;34.70;;;18.80;;
46507;SDS011;32223;53.654;10.014;2023-01-30T02:38:03;32.88;;;17.38;;
46507;SDS011;32223;53.654;10.014;2023-01-30T02:48:58;29.60;;;15.77;;
46507;SDS011;32223;53.654;10.014;2023-01-30T02:51:34;27.88;;;14.15;;
46507;SDS011;32223;53.654;10.014;2023-01-30T02:54:01;27.48;;;14.57;;
46507;SDS011;32223;53.654;10.014;2023-01-30T02:56:41;27.15;;;14.43;;
46507;SDS011;32223;53.654;10.014;2023-01-30T02:59:09;22.10;;;13.77;;
46507;SDS011;32223;53.654;10.014;2023-01-30T03:01:54;27.75;;;14.65;;
46507;SDS011;32223;53.654;10.014;2023-01-30T03:04:36;28.20;;;13.60;;
46507;SDS011;32223;53.654;10.014;2023-01-30T03:12:58;26.20;;;12.73;;
46507;SDS011;32223;53.654;10.014;2023-01-30T03:18:00;21.63;;;13.45;;
46507;SDS011;32223;53.654;10.014;2023-01-30T03:20:26;23.83;;;12.38;;
46507;SDS011;32223;53.654;10.014;2023-01-30T03:22:52;20.23;;;12.18;;
46507;SDS011;32223;53.654;10.014;2023-01-30T03:25:19;20.35;;;10.15;;
46507;SDS011;32223;53.654;10.014;2023-01-30T03:27:47;21.73;;;12.25;;
46507;SDS011;32223;53.654;10.014;2023-01-30T03:30:15;21.02;;;10.73;;
46507;SDS011;32223;53.654;10.014;2023-01-30T03:32:41;21.02;;;11.05;;
46507;SDS011;32223;53.654;10.014;2023-01-30T03:35:07;18.95;;;10.73;;
46507;SDS011;32223;53.654;10.014;2023-01-30T03:37:33;19.60;;;10.70;;
46507;SDS011;32223;53.654;10.014;2023-01-30T03:39:59;17.55;;;10.90;;
46507;SDS011;32223;53.654;10.014;2023-01-30T03:42:25;18.20;;;9.40;;
46507;SDS011;32223;53.654;10.014;2023-01-30T03:44:53;15.88;;;10.00;;
46507;SDS011;32223;53.654;10.014;2023-01-30T03:47:19;15.68;;;9.43;;
46507;SDS011;32223;53.654;10.014;2023-01-30T03:49:44;16.85;;;9.80;;
46507;SDS011;32223;53.654;10.014;2023-01-30T03:52:10;16.70;;;10.10;;
46507;SDS011;32223;53.654;10.014;2023-01-30T03:54:35;17.30;;;8.77;;
46507;SDS011;32223;53.654;10.014;2023-01-30T03:57:01;17.50;;;9.18;;
46507;SDS011;32223;53.654;10.014;2023-01-30T03:59:26;13.65;;;8.15;;
46507;SDS011;32223;53.654;10.014;2023-01-30T04:01:52;14.65;;;8.60;;
46507;SDS011;32223;53.654;10.014;2023-01-30T04:04:18;13.30;;;8.80;;
46507;SDS011;32223;53.654;10.014;2023-01-30T04:06:43;17.98;;;7.82;;
46507;SDS011;32223;53.654;10.014;2023-01-30T04:09:09;14.15;;;7.93;;
46507;SDS011;32223;53.654;10.014;2023-01-30T04:11:35;9.43;;;3.72;;
46507;SDS011;32223;53.654;10.014;2023-01-30T04:14:00;9.07;;;3.00;;
46507;SDS011;32223;53.654;10.014;2023-01-30T04:16:26;8.27;;;2.20;;
46507;SDS011;32223;53.654;10.014;2023-01-30T04:18:52;5.30;;;2.10;;
46507;SDS011;32223;53.654;10.014;2023-01-30T04:21:17;8.85;;;1.13;;
46507;SDS011;32223;53.654;10.014;2023-01-30T04:23:44;2.42;;;1.25;;
46507;SDS011;32223;53.654;10.014;2023-01-30T04:26:10;6.90;;;1.40;;
46507;SDS011;32223;53.654;10.014;2023-01-30T04:28:37;4.32;;;1.60;;
46507;SDS011;32223;53.654;10.014;2023-01-30T04:31:04;5.30;;;1.50;;
46507;SDS011;32223;53.654;10.014;2023-01-30T04:33:30;6.55;;;1.33;;
46507;SDS011;32223;53.654;10.014;2023-01-30T04:35:59;4.20;;;1.17;;
46507;SDS011;32223;53.654;10.014;2023-01-30T04:38:27;6.63;;;1.20;;
46507;SDS011;32223;53.654;10.014;2023-01-30T04:40:54;8.90;;;1.15;;
46507;SDS011;32223;53.654;10.014;2023-01-30T04:43:21;8.10;;;1.33;;
46507;SDS011;32223;53.654;10.014;2023-01-30T04:45:49;5.40;;;1.17;;
46507;SDS011;32223;53.654;10.014;2023-01-30T04:48:16;10.77;;;1.95;;
46507;SDS011;32223;53.654;10.014;2023-01-30T04:50:43;8.00;;;3.13;;
46507;SDS011;32223;53.654;10.014;2023-01-30T04:53:11;8.35;;;1.42;;
46507;SDS011;32223;53.654;10.014;2023-01-30T04:55:37;5.55;;;1.40;;
46507;SDS011;32223;53.654;10.014;2023-01-30T04:58:03;5.40;;;1.08;;
46507;SDS011;32223;53.654;10.014;2023-01-30T05:00:28;5.15;;;1.15;;
46507;SDS011;32223;53.654;10.014;2023-01-30T05:02:54;7.82;;;1.95;;
46507;SDS011;32223;53.654;10.014;2023-01-30T05:05:20;6.80;;;1.50;;
46507;SDS011;32223;53.654;10.014;2023-01-30T05:07:47;6.00;;;1.55;;
46507;SDS011;32223;53.654;10.014;2023-01-30T05:10:13;13.18;;;4.05;;
46507;SDS011;32223;53.654;10.014;2023-01-30T05:12:38;11.43;;;2.38;;
46507;SDS011;32223;53.654;10.014;2023-01-30T05:15:04;6.53;;;1.58;;
46507;SDS011;32223;53.654;10.014;2023-01-30T05:17:30;5.60;;;1.58;;
46507;SDS011;32223;53.654;10.014;2023-01-30T05:19:57;7.38;;;1.95;;
46507;SDS011;32223;53.654;10.014;2023-01-30T05:22:22;17.73;;;2.55;;
46507;SDS011;32223;53.654;10.014;2023-01-30T05:24:48;7.75;;;1.67;;
46507;SDS011;32223;53.654;10.014;2023-01-30T05:27:13;5.05;;;1.30;;
46507;SDS011;32223;53.654;10.014;2023-01-30T05:29:39;4.60;;;1.55;;
46507;SDS011;32223;53.654;10.014;2023-01-30T05:32:05;8.27;;;2.17;;
46507;SDS011;32223;53.654;10.014;2023-01-30T05:34:30;7.80;;;2.22;;
46507;SDS011;32223;53.654;10.014;2023-01-30T05:36:56;15.40;;;2.08;;
46507;SDS011;32223;53.654;10.014;2023-01-30T05:39:22;9.10;;;2.38;;
46507;SDS011;32223;53.654;10.014;2023-01-30T05:41:47;9.80;;;1.88;;
46507;SDS011;32223;53.654;10.014;2023-01-30T05:44:13;15.75;;;3.42;;
46507;SDS011;32223;53.654;10.014;2023-01-30T05:46:38;9.95;;;1.45;;
46507;SDS011;32223;53.654;10.014;2023-01-30T05:49:04;8.27;;;2.55;;
46507;SDS011;32223;53.654;10.014;2023-01-30T05:51:31;6.95;;;2.45;;
46507;SDS011;32223;53.654;10.014;2023-01-30T05:53:58;14.25;;;2.80;;
46507;SDS011;32223;53.654;10.014;2023-01-30T05:56:24;8.95;;;1.58;;
46507;SDS011;32223;53.654;10.014;2023-01-30T05:58:50;12.98;;;2.00;;
46507;SDS011;32223;53.654;10.014;2023-01-30T06:01:20;13.45;;;2.42;;
46507;SDS011;32223;53.654;10.014;2023-01-30T06:03:46;9.18;;;2.42;;
46507;SDS011;32223;53.654;10.014;2023-01-30T06:06:12;16.13;;;5.80;;
46507;SDS011;32223;53.654;10.014;2023-01-30T06:08:38;6.82;;;1.83;;
46507;SDS011;32223;53.654;10.014;2023-01-30T06:11:08;9.02;;;2.15;;
46507;SDS011;32223;53.654;10.014;2023-01-30T06:13:36;15.05;;;2.42;;
46507;SDS011;32223;53.654;10.014;2023-01-30T06:16:02;9.88;;;1.75;;
46507;SDS011;32223;53.654;10.014;2023-01-30T06:18:29;8.20;;;2.10;;
46507;SDS011;32223;53.654;10.014;2023-01-30T06:20:54;11.32;;;2.22;;
46507;SDS011;32223;53.654;10.014;2023-01-30T06:23:20;9.45;;;2.70;;
46507;SDS011;32223;53.654;10.014;2023-01-30T06:25:48;17.52;;;3.20;;
46507;SDS011;32223;53.654;10.014;2023-01-30T06:28:14;12.82;;;2.45;;
46507;SDS011;32223;53.654;10.014;2023-01-30T06:30:40;10.27;;;1.80;;
46507;SDS011;32223;53.654;10.014;2023-01-30T06:33:07;12.65;;;2.58;;
46507;SDS011;32223;53.654;10.014;2023-01-30T06:35:33;12.07;;;2.72;;
46507;SDS011;32223;53.654;10.014;2023-01-30T06:37:59;11.23;;;2.83;;
46507;SDS011;32223;53.654;10.014;2023-01-30T06:40:24;21.45;;;2.53;;
46507;SDS011;32223;53.654;10.014;2023-01-30T06:42:50;6.78;;;2.58;;
46507;SDS011;32223;53.654;10.014;2023-01-30T06:45:16;12.68;;;2.58;;
46507;SDS011;32223;53.654;10.014;2023-01-30T06:47:49;12.32;;;2.38;;
46507;SDS011;32223;53.654;10.014;2023-01-30T06:50:17;12.88;;;2.50;;
46507;SDS011;32223;53.654;10.014;2023-01-30T06:52:44;7.50;;;1.70;;
46507;SDS011;32223;53.654;10.014;2023-01-30T06:55:13;19.60;;;2.63;;
46507;SDS011;32223;53.654;10.014;2023-01-30T06:57:40;11.98;;;2.53;;
46507;SDS011;32223;53.654;10.014;2023-01-30T07:00:07;15.18;;;3.20;;
46507;SDS011;32223;53.654;10.014;2023-01-30T07:02:35;9.48;;;3.40;;
46507;SDS011;32223;53.654;10.014;2023-01-30T07:05:01;12.65;;;3.15;;
46507;SDS011;32223;53.654;10.014;2023-01-30T07:07:28;14.35;;;2.40;;
46507;SDS011;32223;53.654;10.014;2023-01-30T07:09:54;10.98;;;2.60;;
46507;SDS011;32223;53.654;10.014;2023-01-30T07:12:20;19.60;;;1.98;;
46507;SDS011;32223;53.654;10.014;2023-01-30T07:14:46;14.73;;;1.80;;
46507;SDS011;32223;53.654;10.014;2023-01-30T07:17:12;15.77;;;3.55;;
46507;SDS011;32223;53.654;10.014;2023-01-30T07:19:38;11.45;;;2.20;;
46507;SDS011;32223;53.654;10.014;2023-01-30T07:22:04;7.60;;;1.92;;
46507;SDS011;32223;53.654;10.014;2023-01-30T07:24:30;16.42;;;1.63;;
46507;SDS011;32223;53.654;10.014;2023-01-30T07:26:55;24.70;;;3.92;;
46507;SDS011;32223;53.654;10.014;2023-01-30T07:29:21;10.65;;;1.98;;
46507;SDS011;32223;53.654;10.014;2023-01-30T07:31:46;15.60;;;2.08;;
46507;SDS011;32223;53.654;10.014;2023-01-30T07:34:12;14.70;;;2.50;;
46507;SDS011;32223;53.654;10.014;2023-01-30T07:36:37;20.25;;;3.60;;
46507;SDS011;32223;53.654;10.014;2023-01-30T07:39:03;13.80;;;3.17;;
46507;SDS011;32223;53.654;10.014;2023-01-30T07:41:29;19.23;;;3.03;;
46507;SDS011;32223;53.654;10.014;2023-01-30T07:43:55;9.93;;;2.83;;
46507;SDS011;32223;53.654;10.014;2023-01-30T07:46:20;16.67;;;3.67;;
46507;SDS011;32223;53.654;10.014;2023-01-30T07:48:46;15.05;;;2.90;;
46507;SDS011;32223;53.654;10.014;2023-01-30T07:51:12;11.68;;;3.13;;
46507;SDS011;32223;53.654;10.014;2023-01-30T07:53:37;20.55;;;2.40;;
46507;SDS011;32223;53.654;10.014;2023-01-30T07:56:07;16.45;;;3.17;;
46507;SDS011;32223;53.654;10.014;2023-01-30T07:58:33;16.67;;;3.60;;
46507;SDS011;32223;53.654;10.014;2023-01-30T08:00:59;22.65;;;4.18;;
46507;SDS011;32223;53.654;10.014;2023-01-30T08:03:25;27.10;;;4.70;;
46507;SDS011;32223;53.654;10.014;2023-01-30T08:05:51;17.90;;;4.25;;
46507;SDS011;32223;53.654;10.014;2023-01-30T08:08:18;25.23;;;5.68;;
46507;SDS011;32223;53.654;10.014;2023-01-30T08:10:44;20.80;;;4.35;;
46507;SDS011;32223;53.654;10.014;2023-01-30T08:13:12;27.55;;;4.88;;
46507;SDS011;32223;53.654;10.014;2023-01-30T08:15:38;22.25;;;4.03;;
46507;SDS011;32223;53.654;10.014;2023-01-30T08:18:04;25.98;;;4.63;;
46507;SDS011;32223;53.654;10.014;2023-01-30T08:20:33;14.02;;;4.28;;
46507;SDS011;32223;53.654;10.014;2023-01-30T08:22:59;25.80;;;4.07;;
46507;SDS011;32223;53.654;10.014;2023-01-30T08:25:26;25.60;;;6.30;;
46507;SDS011;32223;53.654;10.014;2023-01-30T08:27:52;21.77;;;3.45;;
46507;SDS011;32223;53.654;10.014;2023-01-30T08:30:18;28.25;;;7.47;;
46507;SDS011;32223;53.654;10.014;2023-01-30T08:32:45;22.88;;;3.47;;
46507;SDS011;32223;53.654;10.014;2023-01-30T08:35:11;28.30;;;5.88;;
46507;SDS011;32223;53.654;10.014;2023-01-30T08:37:40;24.45;;;4.88;;
46507;SDS011;32223;53.654;10.014;2023-01-30T08:40:07;22.67;;;5.72;;
46507;SDS011;32223;53.654;10.014;2023-01-30T08:42:33;28.30;;;5.65;;
46507;SDS011;32223;53.654;10.014;2023-01-30T08:44:59;30.85;;;6.25;;
46507;SDS011;32223;53.654;10.014;2023-01-30T08:47:24;29.25;;;5.70;;
46507;SDS011;32223;53.654;10.014;2023-01-30T08:49:50;18.52;;;5.68;;
46507;SDS011;32223;53.654;10.014;2023-01-30T08:52:17;34.65;;;5.35;;
46507;SDS011;32223;53.654;10.014;2023-01-30T08:54:43;26.45;;;5.20;;
46507;SDS011;32223;53.654;10.014;2023-01-30T08:57:08;31.90;;;7.70;;
46507;SDS011;32223;53.654;10.014;2023-01-30T08:59:34;20.83;;;4.95;;
46507;SDS011;32223;53.654;10.014;2023-01-30T09:02:00;25.35;;;7.45;;
46507;SDS011;32223;53.654;10.014;2023-01-30T09:04:27;29.63;;;6.97;;
46507;SDS011;32223;53.654;10.014;2023-01-30T09:06:54;30.00;;;6.13;;
46507;SDS011;32223;53.654;10.014;2023-01-30T09:09:19;19.92;;;3.90;;
46507;SDS011;32223;53.654;10.014;2023-01-30T09:11:45;30.95;;;6.50;;
46507;SDS011;32223;53.654;10.014;2023-01-30T09:14:12;24.60;;;5.43;;
46507;SDS011;32223;53.654;10.014;2023-01-30T09:16:38;28.25;;;6.68;;
46507;SDS011;32223;53.654;10.014;2023-01-30T09:19:03;22.80;;;4.53;;
46507;SDS011;32223;53.654;10.014;2023-01-30T09:21:29;23.38;;;4.80;;
46507;SDS011;32223;53.654;10.014;2023-01-30T09:23:56;25.35;;;4.75;;
46507;SDS011;32223;53.654;10.014;2023-01-30T09:26:22;42.33;;;7.28;;
46507;SDS011;32223;53.654;10.014;2023-01-30T09:28:48;18.77;;;4.05;;
46507;SDS011;32223;53.654;10.014;2023-01-30T09:31:13;22.33;;;4.43;;
46507;SDS011;32223;53.654;10.014;2023-01-30T09:33:39;22.05;;;5.32;;
46507;SDS011;32223;53.654;10.014;2023-01-30T09:36:04;29.13;;;5.53;;
46507;SDS011;32223;53.654;10.014;2023-01-30T09:38:30;16.42;;;4.72;;
46507;SDS011;32223;53.654;10.014;2023-01-30T09:46:51;20.27;;;5.55;;
46507;SDS011;32223;53.654;10.014;2023-01-30T09:49:28;18.83;;;3.90;;
46507;SDS011;32223;53.654;10.014;2023-01-30T09:55:22;20.60;;;4.20;;
46507;SDS011;32223;53.654;10.014;2023-01-30T09:57:53;20.67;;;5.00;;
46507;SDS011;32223;53.654;10.014;2023-01-30T10:00:23;14.27;;;4.05;;
46507;SDS011;32223;53.654;10.014;2023-01-30T10:03:05;20.95;;;4.85;;
46507;SDS011;32223;53.654;10.014;2023-01-30T10:16:17;21.73;;;4.68;;
46507;SDS011;32223;53.654;10.014;2023-01-30T10:27:12;10.17;;;2.63;;
46507;SDS011;32223;53.654;10.014;2023-01-30T10:29:41;12.00;;;2.03;;
46507;SDS011;32223;53.654;10.014;2023-01-30T10:34:50;16.05;;;3.15;;
46507;SDS011;32223;53.654;10.014;2023-01-30T10:42:35;12.38;;;2.85;;
46507;SDS011;32223;53.654;10.014;2023-01-30T10:45:09;5.38;;;1.88;;
46507;SDS011;32223;53.654;10.014;2023-01-30T10:50:33;11.05;;;3.05;;
46507;SDS011;32223;53.654;10.014;2023-01-30T10:53:52;14.45;;;3.15;;
46507;SDS011;32223;53.654;10.014;2023-01-30T10:56:12;19.10;;;3.80;;
46507;SDS011;32223;53.654;10.014;2023-01-30T10:58:53;10.38;;;2.50;;
46507;SDS011;32223;53.654;10.014;2023-01-30T11:01:36;13.10;;;3.05;;
46507;SDS011;32223;53.654;10.014;2023-01-30T11:04:18;9.95;;;1.88;;
46507;SDS011;32223;53.654;10.014;2023-01-30T11:06:46;10.63;;;1.83;;
46507;SDS011;32223;53.654;10.014;2023-01-30T11:09:12;9.85;;;1.45;;
46507;SDS011;32223;53.654;10.014;2023-01-30T11:11:47;4.25;;;0.60;;
46507;SDS011;32223;53.654;10.014;2023-01-30T11:14:17;4.57;;;0.70;;
46507;SDS011;32223;53.654;10.014;2023-01-30T11:19:15;7.68;;;1.48;;
46507;SDS011;32223;53.654;10.014;2023-01-30T11:21:53;5.18;;;0.45;;
46507;SDS011;32223;53.654;10.014;2023-01-30T11:27:28;5.85;;;0.88;;
46507;SDS011;32223;53.654;10.014;2023-01-30T11:32:53;7.57;;;1.58;;
46507;SDS011;32223;53.654;10.014;2023-01-30T11:35:38;11.93;;;1.30;;
46507;SDS011;32223;53.654;10.014;2023-01-30T11:38:24;6.18;;;1.02;;
46507;SDS011;32223;53.654;10.014;2023-01-30T11:43:35;4.75;;;1.40;;
46507;SDS011;32223;53.654;10.014;2023-01-30T11:46:04;7.78;;;1.40;;
46507;SDS011;32223;53.654;10.014;2023-01-30T11:48:32;7.72;;;1.70;;
46507;SDS011;32223;53.654;10.014;2023-01-30T11:51:01;11.00;;;2.42;;
46507;SDS011;32223;53.654;10.014;2023-01-30T11:56:04;12.60;;;2.03;;
46507;SDS011;32223;53.654;10.014;2023-01-30T11:58:38;12.43;;;1.83;;
46507;SDS011;32223;53.654;10.014;2023-01-30T12:01:07;13.45;;;3.17;;
46507;SDS011;32223;53.654;10.014;2023-01-30T12:03:36;11.57;;;3.25;;
46507;SDS011;32223;53.654;10.014;2023-01-30T12:06:09;11.48;;;2.20;;
46507;SDS011;32223;53.654;10.014;2023-01-30T12:08:35;14.00;;;2.47;;
46507;SDS011;32223;53.654;10.014;2023-01-30T12:11:03;16.33;;;2.55;;
46507;SDS011;32223;53.654;10.014;2023-01-30T12:14:29;6.72;;;1.52;;
46507;SDS011;32223;53.654;10.014;2023-01-30T12:20:00;11.27;;;3.53;;
46507;SDS011;32223;53.654;10.014;2023-01-30T12:22:38;16.33;;;1.85;;
46507;SDS011;32223;53.654;10.014;2023-01-30T12:25:16;8.98;;;0.90;;
46507;SDS011;32223;53.654;10.014;2023-01-30T12:30:41;2.50;;;1.00;;
46507;SDS011;32223;53.654;10.014;2023-01-30T12:33:13;10.85;;;1.35;;
46507;SDS011;32223;53.654;10.014;2023-01-30T12:44:11;11.23;;;2.03;;
46507;SDS011;32223;53.654;10.014;2023-01-30T12:49:35;7.85;;;2.28;;
46507;SDS011;32223;53.654;10.014;2023-01-30T12:57:27;16.15;;;2.47;;
46507;SDS011;32223;53.654;10.014;2023-01-30T13:08:46;13.93;;;1.88;;
46507;SDS011;32223;53.654;10.014;2023-01-30T13:18:56;21.90;;;4.53;;
46507;SDS011;32223;53.654;10.014;2023-01-30T13:21:33;12.85;;;3.05;;
46507;SDS011;32223;53.654;10.014;2023-01-30T13:26:57;18.35;;;3.63;;
46507;SDS011;32223;53.654;10.014;2023-01-30T13:29:32;13.57;;;4.65;;
46507;SDS011;32223;53.654;10.014;2023-01-30T13:32:03;22.52;;;4.20;;
46507;SDS011;32223;53.654;10.014;2023-01-30T13:34:35;25.25;;;5.93;;
46507;SDS011;32223;53.654;10.014;2023-01-30T13:37:14;13.60;;;4.13;;
46507;SDS011;32223;53.654;10.014;2023-01-30T13:42:42;24.80;;;3.85;;
46507;SDS011;32223;53.654;10.014;2023-01-30T13:45:19;17.38;;;3.53;;
46507;SDS011;32223;53.654;10.014;2023-01-30T13:47:51;20.60;;;4.50;;
46507;SDS011;32223;53.654;10.014;2023-01-30T13:53:01;16.83;;;2.83;;
46507;SDS011;32223;53.654;10.014;2023-01-30T14:00:58;15.88;;;3.55;;
46507;SDS011;32223;53.654;10.014;2023-01-30T14:14:24;18.30;;;3.33;;
46507;SDS011;32223;53.654;10.014;2023-01-30T14:16:53;15.52;;;3.10;;
46507;SDS011;32223;53.654;10.014;2023-01-30T14:19:33;21.52;;;4.45;;
46507;SDS011;32223;53.654;10.014;2023-01-30T14:22:46;11.80;;;3.45;;
46507;SDS011;32223;53.654;10.014;2023-01-30T14:43:26;16.63;;;2.78;;
46507;SDS011;32223;53.654;10.014;2023-01-30T14:48:42;18.50;;;4.57;;
46507;SDS011;32223;53.654;10.014;2023-01-30T14:59:24;16.83;;;3.22;;
46507;SDS011;32223;53.654;10.014;2023-01-30T15:04:44;16.77;;;3.15;;
46507;SDS011;32223;53.654;10.014;2023-01-30T15:10:16;16.63;;;4.13;;
46507;SDS011;32223;53.654;10.014;2023-01-30T15:15:20;16.08;;;3.80;;
46507;SDS011;32223;53.654;10.014;2023-01-30T15:20:19;16.65;;;3.60;;
46507;SDS011;32223;53.654;10.014;2023-01-30T15:25:40;20.90;;;4.25;;
46507;SDS011;32223;53.654;10.014;2023-01-30T15:28:52;25.20;;;3.75;;
46507;SDS011;32223;53.654;10.014;2023-01-30T15:31:18;15.10;;;3.55;;
46507;SDS011;32223;53.654;10.014;2023-01-30T15:33:47;32.28;;;4.68;;
46507;SDS011;32223;53.654;10.014;2023-01-30T15:36:18;14.07;;;3.00;;
46507;SDS011;32223;53.654;10.014;2023-01-30T15:39:33;23.00;;;5.78;;
46507;SDS011;32223;53.654;10.014;2023-01-30T15:52:41;19.92;;;3.53;;
46507;SDS011;32223;53.654;10.014;2023-01-30T15:55:18;24.00;;;5.22;;
46507;SDS011;32223;53.654;10.014;2023-01-30T15:57:53;21.48;;;3.28;;
46507;SDS011;32223;53.654;10.014;2023-01-30T16:00:28;18.20;;;4.28;;
46507;SDS011;32223;53.654;10.014;2023-01-30T16:02:56;20.73;;;4.47;;
46507;SDS011;32223;53.654;10.014;2023-01-30T16:05:24;20.92;;;4.43;;
46507;SDS011;32223;53.654;10.014;2023-01-30T16:07:51;27.92;;;4.88;;
46507;SDS011;32223;53.654;10.014;2023-01-30T16:10:26;24.83;;;5.35;;
46507;SDS011;32223;53.654;10.014;2023-01-30T16:12:54;25.85;;;4.50;;
46507;SDS011;32223;53.654;10.014;2023-01-30T16:20:45;28.33;;;4.95;;
46507;SDS011;32223;53.654;10.014;2023-01-30T16:23:36;31.65;;;8.15;;
46507;SDS011;32223;53.654;10.014;2023-01-30T16:26:17;25.80;;;4.47;;
46507;SDS011;32223;53.654;10.014;2023-01-30T16:28:45;23.77;;;4.60;;
46507;SDS011;32223;53.654;10.014;2023-01-30T16:31:13;24.42;;;6.13;;
46507;SDS011;32223;53.654;10.014;2023-01-30T16:33:40;26.20;;;4.82;;
46507;SDS011;32223;53.654;10.014;2023-01-30T16:36:27;21.48;;;4.40;;
46507;SDS011;32223;53.654;10.014;2023-01-30T16:38:52;28.90;;;6.53;;
46507;SDS011;32223;53.654;10.014;2023-01-30T16:41:52;22.55;;;4.50;;
46507;SDS011;32223;53.654;10.014;2023-01-30T16:44:19;20.70;;;4.28;;
46507;SDS011;32223;53.654;10.014;2023-01-30T16:47:05;14.50;;;4.10;;
46507;SDS011;32223;53.654;10.014;2023-01-30T16:52:30;25.55;;;4.90;;
46507;SDS011;32223;53.654;10.014;2023-01-30T16:55:20;26.15;;;4.38;;
46507;SDS011;32223;53.654;10.014;2023-01-30T16:57:52;18.90;;;3.05;;
46507;SDS011;32223;53.654;10.014;2023-01-30T17:00:25;24.40;;;4.72;;
46507;SDS011;32223;53.654;10.014;2023-01-30T17:02:55;23.23;;;4.47;;
46507;SDS011;32223;53.654;10.014;2023-01-30T17:05:24;19.05;;;4.85;;
46507;SDS011;32223;53.654;10.014;2023-01-30T17:07:54;23.10;;;3.88;;
46507;SDS011;32223;53.654;10.014;2023-01-30T17:13:02;19.05;;;4.22;;
46507;SDS011;32223;53.654;10.014;2023-01-30T17:15:29;17.77;;;3.03;;
46507;SDS011;32223;53.654;10.014;2023-01-30T17:17:56;21.20;;;3.95;;
46507;SDS011;32223;53.654;10.014;2023-01-30T17:20:22;19.40;;;5.45;;
46507;SDS011;32223;53.654;10.014;2023-01-30T17:22:57;18.73;;;3.70;;
46507;SDS011;32223;53.654;10.014;2023-01-30T17:25:32;18.75;;;3.05;;
46507;SDS011;32223;53.654;10.014;2023-01-30T17:28:05;15.40;;;4.45;;
46507;SDS011;32223;53.654;10.014;2023-01-30T17:30:31;14.90;;;2.10;;
46507;SDS011;32223;53.654;10.014;2023-01-30T17:32:58;14.45;;;2.88;;
46507;SDS011;32223;53.654;10.014;2023-01-30T17:35:23;16.92;;;2.92;;
46507;SDS011;32223;53.654;10.014;2023-01-30T17:37:49;14.10;;;2.88;;
46507;SDS011;32223;53.654;10.014;2023-01-30T17:42:43;16.02;;;3.72;;
46507;SDS011;32223;53.654;10.014;2023-01-30T17:45:08;13.23;;;3.35;;
46507;SDS011;32223;53.654;10.014;2023-01-30T17:47:34;15.57;;;4.10;;
46507;SDS011;32223;53.654;10.014;2023-01-30T17:50:00;16.10;;;4.63;;
46507;SDS011;32223;53.654;10.014;2023-01-30T17:52:26;14.90;;;4.43;;
46507;SDS011;32223;53.654;10.014;2023-01-30T17:54:51;12.63;;;2.13;;
46507;SDS011;32223;53.654;10.014;2023-01-30T17:57:17;21.40;;;4.28;;
46507;SDS011;32223;53.654;10.014;2023-01-30T17:59:44;11.05;;;3.08;;
46507;SDS011;32223;53.654;10.014;2023-01-30T18:02:10;10.07;;;2.78;;
46507;SDS011;32223;53.654;10.014;2023-01-30T18:04:36;20.10;;;2.65;;
46507;SDS011;32223;53.654;10.014;2023-01-30T18:07:06;12.13;;;3.17;;
46507;SDS011;32223;53.654;10.014;2023-01-30T18:09:35;12.63;;;3.63;;